Time;durP1;ratioP1;P1;durP2;ratioP2;P2;SDS_P1;SDS_P2;PMS_P1;PMS_P2;Temp;Humidity;BMP_temperature;BMP_pressure;BME280_temperature;BME280_humidity;BME280_pressure;Samples;Min_cycle;Max_cycle;Signal;HPM_P1;HPM_P2
2023/08/21 00:00:05;;;;;;;9.47;7.47;;;;;;;12.03;100.00;101928.75;5074704;28;20037;-67
2023/08/21 00:02:31;;;;;;;10.43;6.73;;;;;;;11.99;100.00;101931.84;5074478;28;20031;-65
2023/08/21 00:04:57;;;;;;;9.83;7.00;;;;;;;12.04;100.00;101941.13;5074336;28;20029;-67
2023/08/21 00:07:22;;;;;;;9.67;7.20;;;;;;;11.92;100.00;101920.91;5073143;28;20071;-65
2023/08/21 00:09:48;;;;;;;7.67;6.87;;;;;;;12.06;100.00;101939.13;5074150;28;20060;-64
2023/08/21 00:12:14;;;;;;;8.90;6.70;;;;;;;11.95;100.00;101923.28;5074322;28;20056;-65
2023/08/21 00:14:39;;;;;;;8.10;6.63;;;;;;;12.03;100.00;101936.75;5073039;28;20472;-66
2023/08/21 00:17:05;;;;;;;6.60;6.00;;;;;;;11.99;100.00;101924.69;5074216;28;20078;-67
2023/08/21 00:19:30;;;;;;;17.73;6.63;;;;;;;11.95;100.00;101931.31;5074417;28;20119;-66
2023/08/21 00:21:56;;;;;;;7.13;6.17;;;;;;;11.87;100.00;101923.19;5074203;28;20422;-67
2023/08/21 00:24:22;;;;;;;7.23;6.23;;;;;;;11.84;100.00;101923.44;5074270;28;20349;-66
2023/08/21 00:26:47;;;;;;;7.57;6.83;;;;;;;11.76;100.00;101902.75;5072842;28;20024;-65
2023/08/21 00:29:12;;;;;;;9.37;6.30;;;;;;;11.85;100.00;101918.94;5073919;28;20071;-67
2023/08/21 00:31:38;;;;;;;8.07;6.90;;;;;;;11.80;100.00;101914.03;5073994;28;20033;-67
2023/08/21 00:34:03;;;;;;;12.87;6.20;;;;;;;11.59;100.00;101874.16;5072701;28;20357;-67
2023/08/21 00:36:29;;;;;;;5.87;5.23;;;;;;;11.78;100.00;101908.84;5074456;28;20438;-64
2023/08/21 00:38:55;;;;;;;9.30;6.10;;;;;;;11.73;100.00;101907.56;5073769;28;20036;-67
2023/08/21 00:41:21;;;;;;;8.93;6.10;;;;;;;11.71;100.00;101909.53;5073832;28;20040;-66
2023/08/21 00:43:46;;;;;;;8.97;5.57;;;;;;;11.85;100.00;101934.94;5073320;28;20093;-68
2023/08/21 00:46:12;;;;;;;7.60;5.63;;;;;;;11.78;100.00;101918.66;5073608;28;20111;-66
2023/08/21 00:48:38;;;;;;;10.27;5.47;;;;;;;11.69;100.00;101903.50;5073517;28;20024;-65
2023/08/21 00:51:06;;;;;;;6.20;5.50;;;;;;;11.72;100.00;101919.22;5074387;28;20039;-66
2023/08/21 00:53:32;;;;;;;9.15;6.20;;;;;;;11.73;100.00;101923.56;5073452;28;20525;-65
2023/08/21 00:55:58;;;;;;;7.20;5.77;;;;;;;11.75;100.00;101930.44;5073564;28;20033;-67
2023/08/21 00:58:24;;;;;;;10.43;6.03;;;;;;;11.57;100.00;101901.97;5073500;28;20360;-69
2023/08/21 01:00:51;;;;;;;7.10;5.67;;;;;;;11.57;100.00;101904.63;5073891;28;20058;-67
2023/08/21 01:03:18;;;;;;;5.93;5.30;;;;;;;11.72;100.00;101935.22;5072009;28;20047;-65
2023/08/21 01:05:43;;;;;;;7.27;6.20;;;;;;;11.66;100.00;101919.78;5073454;28;20030;-67
2023/08/21 01:08:33;;;;;;;6.67;5.80;;;;;;;11.67;100.00;101921.47;5072048;28;20036;-67
2023/08/21 01:11:14;;;;;;;7.13;5.53;;;;;;;11.68;100.00;101933.81;5073349;28;20037;-64
2023/08/21 01:14:06;;;;;;;10.10;5.60;;;;;;;11.68;100.00;101928.47;5072974;28;20028;-64
2023/08/21 01:16:32;;;;;;;9.17;5.50;;;;;;;11.64;100.00;101919.94;5073413;28;20024;-66
2023/08/21 01:19:00;;;;;;;5.87;4.90;;;;;;;11.61;100.00;101919.38;5072971;28;20070;-66
2023/08/21 01:21:27;;;;;;;8.55;5.40;;;;;;;11.61;100.00;101919.38;5073768;28;20487;-64
2023/08/21 01:23:52;;;;;;;8.50;5.00;;;;;;;11.61;100.00;101933.56;5073410;28;20020;-65
2023/08/21 01:26:18;;;;;;;8.93;5.80;;;;;;;11.60;100.00;101925.69;5074538;28;20141;-66
2023/08/21 01:28:44;;;;;;;7.30;5.87;;;;;;;11.56;100.00;101918.91;5073119;28;20402;-66
2023/08/21 01:31:09;;;;;;;7.73;5.43;;;;;;;11.24;100.00;101872.03;5073133;28;20456;-67
2023/08/21 01:33:42;;;;;;;8.47;5.80;;;;;;;11.55;100.00;101923.41;5071959;28;20028;-65
2023/08/21 01:36:08;;;;;;;8.47;5.90;;;;;;;11.14;100.00;101855.19;5072430;28;20127;-65
2023/08/21 01:38:35;;;;;;;7.70;5.73;;;;;;;11.47;100.00;101909.94;5072338;28;20036;-65
2023/08/21 01:41:01;;;;;;;6.97;5.90;;;;;;;11.28;100.00;101886.81;5072619;28;20423;-64
2023/08/21 01:43:27;;;;;;;8.90;5.63;;;;;;;11.38;100.00;101895.63;5071301;28;20367;-63
2023/08/21 01:45:53;;;;;;;10.03;6.00;;;;;;;11.46;100.00;101908.25;5072564;28;20041;-66
2023/08/21 01:48:18;;;;;;;8.63;5.33;;;;;;;11.46;100.00;101908.25;5071488;28;20119;-64
2023/08/21 01:50:43;;;;;;;7.43;6.10;;;;;;;11.40;100.00;101906.16;5071100;28;20035;-65
2023/08/21 01:53:09;;;;;;;7.80;5.50;;;;;;;11.43;100.00;101909.38;5072759;28;20078;-65
2023/08/21 01:55:34;;;;;;;9.23;5.17;;;;;;;11.33;100.00;101891.72;5071381;28;20127;-66
2023/08/21 01:58:00;;;;;;;20.47;13.67;;;;;;;11.36;100.00;101908.28;5072850;28;20036;-68
2023/08/21 02:00:25;;;;;;;14.37;10.30;;;;;;;11.37;100.00;101904.63;5073554;28;20456;-63
2023/08/21 02:02:51;;;;;;;9.13;6.10;;;;;;;11.30;100.00;101906.16;5072674;28;20031;-66
2023/08/21 02:05:16;;;;;;;6.53;5.40;;;;;;;11.04;100.00;101855.22;5072307;28;20034;-65
2023/08/21 02:07:42;;;;;;;8.57;5.83;;;;;;;11.29;100.00;101895.66;5072104;28;20055;-65
2023/08/21 02:10:08;;;;;;;8.00;6.17;;;;;;;11.26;100.00;101899.41;5072484;28;20472;-65
2023/08/21 02:12:33;;;;;;;10.23;6.43;;;;;;;11.19;100.00;101882.28;5072329;28;20046;-68
2023/08/21 02:14:58;;;;;;;7.10;5.33;;;;;;;11.03;100.00;101855.34;5072867;28;20103;-67
2023/08/21 02:17:26;;;;;;;6.97;5.67;;;;;;;11.28;100.00;101897.47;5073858;28;20055;-65
2023/08/21 02:19:52;;;;;;;6.85;5.22;;;;;;;11.26;100.00;101896.72;5072244;28;20114;-65
2023/08/21 02:22:17;;;;;;;13.73;6.53;;;;;;;11.20;100.00;101880.47;5071880;28;20036;-66
2023/08/21 02:24:43;;;;;;;7.07;5.43;;;;;;;11.15;100.00;101875.53;5072425;28;20124;-64
2023/08/21 02:27:08;;;;;;;7.07;5.63;;;;;;;11.32;100.00;101906.88;5071977;28;20029;-67
2023/08/21 02:29:34;;;;;;;8.27;5.30;;;;;;;10.98;100.00;101861.06;5072111;28;20455;-65
2023/08/21 02:31:59;;;;;;;7.70;5.40;;;;;;;11.28;100.00;101908.13;5072138;28;20032;-64
2023/08/21 02:34:25;;;;;;;9.70;6.77;;;;;;;11.28;100.00;101901.97;5072019;28;20081;-63
2023/08/21 02:36:50;;;;;;;8.13;5.90;;;;;;;11.06;100.00;101869.22;5072034;28;20073;-66
2023/08/21 02:39:15;;;;;;;8.03;6.23;;;;;;;11.25;100.00;101899.53;5073556;28;20043;-65
2023/08/21 02:41:41;;;;;;;9.33;5.70;;;;;;;11.28;100.00;101889.47;5072146;28;20021;-64
2023/08/21 02:44:06;;;;;;;9.57;6.23;;;;;;;11.29;100.00;101896.47;5071851;28;20043;-66
2023/08/21 02:46:34;;;;;;;8.03;5.77;;;;;;;11.20;100.00;101883.97;5070802;28;20029;-67
2023/08/21 02:48:59;;;;;;;12.53;7.03;;;;;;;11.31;100.00;101891.84;5072628;28;20020;-64
2023/08/21 02:51:25;;;;;;;9.30;6.27;;;;;;;11.32;100.00;101888.19;5080171;28;20028;-64
2023/08/21 02:53:50;;;;;;;9.43;6.27;;;;;;;11.29;100.00;101876.97;5077032;28;20041;-68
2023/08/21 02:56:16;;;;;;;12.43;6.47;;;;;;;11.28;100.00;101873.47;5072970;28;20074;-64
2023/08/21 02:58:41;;;;;;;10.30;6.10;;;;;;;11.35;100.00;101884.41;5072712;28;20494;-66
2023/08/21 03:01:06;;;;;;;8.83;5.87;;;;;;;11.35;100.00;101879.91;5070601;28;20024;-63
2023/08/21 03:03:33;;;;;;;11.20;7.07;;;;;;;11.38;100.00;101882.31;5072445;28;20028;-64
2023/08/21 03:05:59;;;;;;;9.47;6.23;;;;;;;11.35;100.00;101873.75;5071722;28;20027;-63
2023/08/21 03:08:25;;;;;;;8.03;6.47;;;;;;;11.12;100.00;101830.50;5074704;28;20045;-67
2023/08/21 03:10:50;;;;;;;17.30;6.70;;;;;;;11.40;100.00;101860.81;5077051;28;20044;-66
2023/08/21 03:13:15;;;;;;;10.10;6.30;;;;;;;11.43;100.00;101863.19;5074382;28;20024;-66
2023/08/21 03:15:41;;;;;;;10.37;6.33;;;;;;;11.51;100.00;101873.16;5075449;28;20028;-64
2023/08/21 03:18:06;;;;;;;9.57;6.60;;;;;;;11.42;100.00;101854.34;5075357;28;20056;-64
2023/08/21 03:20:32;;;;;;;8.60;6.40;;;;;;;11.55;100.00;101869.22;5075002;28;20020;-64
2023/08/21 03:22:57;;;;;;;11.63;7.43;;;;;;;11.44;100.00;101843.53;5075470;28;20445;-68
2023/08/21 03:25:23;;;;;;;9.80;7.07;;;;;;;11.61;100.00;101863.34;5076187;28;20035;-68
2023/08/21 03:27:49;;;;;;;8.83;7.30;;;;;;;11.60;100.00;101857.16;5074185;28;20613;-67
2023/08/21 03:30:15;;;;;;;12.80;7.50;;;;;;;11.70;100.00;101867.81;5075094;28;20024;-66
2023/08/21 03:32:40;;;;;;;12.17;7.67;;;;;;;11.72;100.00;101861.34;5075086;28;20028;-62
2023/08/21 03:35:06;;;;;;;9.93;6.30;;;;;;;11.78;100.00;101857.28;5074881;28;20021;-67
2023/08/21 03:37:32;;;;;;;10.47;7.10;;;;;;;11.81;100.00;101857.00;5074724;28;20112;-65
2023/08/21 03:39:57;;;;;;;12.77;7.50;;;;;;;11.88;100.00;101854.63;5075469;28;20031;-65
2023/08/21 03:42:23;;;;;;;10.07;7.03;;;;;;;11.96;100.00;101858.22;5076577;28;20037;-66
2023/08/21 03:44:50;;;;;;;10.67;7.80;;;;;;;11.90;100.00;101837.47;5074987;28;20024;-67
2023/08/21 03:47:16;;;;;;;11.07;6.93;;;;;;;11.99;100.00;101846.41;5076328;28;20024;-65
2023/08/21 03:49:41;;;;;;;9.63;7.23;;;;;;;12.08;100.00;101854.38;5075160;28;20107;-69
2023/08/21 03:52:07;;;;;;;12.33;8.43;;;;;;;12.10;100.00;101860.41;5073708;28;20119;-63
2023/08/21 03:54:32;;;;;;;9.40;8.00;;;;;;;12.22;100.00;101853.09;5074751;28;20040;-66
2023/08/21 03:56:58;;;;;;;14.47;8.70;;;;;;;12.19;100.00;101837.38;5075223;28;20079;-67
2023/08/21 03:59:27;;;;;;;13.47;8.97;;;;;;;12.32;100.00;101848.53;5075011;28;20074;-66
2023/08/21 04:01:52;;;;;;;;;;;;;;;12.43;100.00;101842.16;5075477;28;20028;-64
2023/08/21 04:04:17;;;;;;;11.73;9.47;;;;;;;12.47;100.00;101853.41;5075550;28;19962;-68
2023/08/21 04:06:43;;;;;;;11.13;8.13;;;;;;;12.52;100.00;101846.63;5074763;28;20042;-65
2023/08/21 04:09:10;;;;;;;11.77;9.03;;;;;;;12.56;100.00;101850.69;5074635;28;20523;-64
2023/08/21 04:11:36;;;;;;;10.53;8.93;;;;;;;12.57;100.00;101840.81;5075334;28;20033;-66
2023/08/21 04:14:02;;;;;;;13.43;9.83;;;;;;;12.65;100.00;101844.44;5075685;28;20039;-66
2023/08/21 04:16:28;;;;;;;20.13;9.80;;;;;;;12.63;100.00;101830.38;5078544;28;20085;-64
2023/08/21 04:18:53;;;;;;;20.87;9.83;;;;;;;12.59;100.00;101822.81;5078266;28;20028;-65
2023/08/21 04:21:19;;;;;;;13.17;10.23;;;;;;;12.66;100.00;101829.22;5076272;28;20035;-65
2023/08/21 04:23:48;;;;;;;12.90;10.43;;;;;;;12.76;100.00;101834.53;5076582;28;20367;-67
2023/08/21 04:26:13;;;;;;;;;;;;;;;12.81;100.00;101833.09;5074370;28;20067;-65
2023/08/21 04:28:38;;;;;;;12.20;10.07;;;;;;;12.66;100.00;101824.72;5074932;28;19974;-67
2023/08/21 04:31:07;;;;;;;17.67;11.10;;;;;;;12.71;100.00;101830.44;5075137;28;20028;-66
2023/08/21 04:33:34;;;;;;;12.20;9.93;;;;;;;12.74;100.00;101826.66;5073871;28;20024;-68
2023/08/21 04:35:59;;;;;;;18.30;11.63;;;;;;;12.79;100.00;101829.72;5072465;28;20124;-66
2023/08/21 04:38:25;;;;;;;23.10;12.47;;;;;;;12.68;100.00;101811.22;5073039;28;20115;-63
2023/08/21 04:40:51;;;;;;;17.10;11.53;;;;;;;12.70;100.00;101818.09;5072769;28;20056;-66
2023/08/21 04:43:17;;;;;;;15.37;11.30;;;;;;;12.83;100.00;101830.25;5074292;28;20060;-65
2023/08/21 04:45:55;;;;;;;22.03;14.93;;;;;;;12.80;100.00;101819.88;5072945;28;20446;-66
2023/08/21 04:48:21;;;;;;;16.13;10.50;;;;;;;12.82;100.00;101824.06;5073749;28;20036;-65
2023/08/21 04:50:47;;;;;;;19.70;11.27;;;;;;;12.87;100.00;101824.44;5074022;28;20032;-65
2023/08/21 04:53:12;;;;;;;14.70;11.30;;;;;;;12.77;100.00;101809.47;5072545;28;20375;-69
2023/08/21 04:55:40;;;;;;;19.87;11.27;;;;;;;12.93;100.00;101821.16;5072462;28;20032;-69
2023/08/21 04:58:07;;;;;;;15.23;11.53;;;;;;;12.96;100.00;101825.38;5074529;28;20166;-66
2023/08/21 05:00:32;;;;;;;14.47;11.20;;;;;;;13.07;100.00;101817.13;5073824;28;20050;-68
2023/08/21 05:02:58;;;;;;;20.23;10.97;;;;;;;13.07;100.00;101805.59;5073313;28;20457;-65
2023/08/21 05:05:24;;;;;;;15.97;10.67;;;;;;;13.23;100.00;101824.47;5073116;28;20029;-64
2023/08/21 05:07:50;;;;;;;19.17;11.77;;;;;;;13.24;100.00;101818.97;5073240;28;20079;-65
2023/08/21 05:10:15;;;;;;;18.07;10.77;;;;;;;13.37;100.00;101828.47;5073092;28;20028;-65
2023/08/21 05:12:41;;;;;;;20.07;12.70;;;;;;;13.40;100.00;101820.13;5073065;28;20028;-69
2023/08/21 05:15:07;;;;;;;14.53;11.13;;;;;;;13.35;100.00;101798.34;5073944;28;20513;-65
2023/08/21 05:17:32;;;;;;;13.67;10.13;;;;;;;13.55;100.00;101819.38;5071535;28;20035;-66
2023/08/21 05:19:58;;;;;;;18.80;10.80;;;;;;;13.56;100.00;101804.16;5073014;28;20533;-64
2023/08/21 05:22:23;;;;;;;20.20;10.40;;;;;;;13.54;100.00;101792.78;5072574;28;20060;-66
2023/08/21 05:24:49;;;;;;;17.13;9.70;;;;;;;13.85;100.00;101833.31;5072773;28;20104;-68
2023/08/21 05:27:15;;;;;;;15.30;10.63;;;;;;;13.94;100.00;101833.22;5072907;28;20024;-68
2023/08/21 05:29:40;;;;;;;21.33;11.00;;;;;;;13.89;100.00;101806.06;5072489;28;20068;-68
2023/08/21 05:32:06;;;;;;;19.03;11.47;;;;;;;14.11;100.00;101831.44;5072792;28;20486;-68
2023/08/21 05:34:32;;;;;;;22.13;10.67;;;;;;;14.20;100.00;101827.84;5073269;28;20020;-65
2023/08/21 05:36:57;;;;;;;14.87;10.50;;;;;;;14.15;100.00;101799.81;5072635;28;20050;-65
2023/08/21 05:39:23;;;;;;;14.80;10.30;;;;;;;14.42;100.00;101833.59;5072685;28;20469;-67
2023/08/21 05:41:48;;;;;;;21.57;10.47;;;;;;;14.47;100.00;101821.44;5072494;28;20025;-68
2023/08/21 05:44:13;;;;;;;21.97;11.47;;;;;;;14.47;100.00;101797.31;5072338;28;20123;-67
2023/08/21 05:46:39;;;;;;;13.53;9.77;;;;;;;14.38;100.00;101770.59;5072175;28;20412;-64
2023/08/21 05:49:04;;;;;;;20.17;10.07;;;;;;;14.61;100.00;101792.31;5071511;28;20032;-68
2023/08/21 05:51:30;;;;;;;13.10;9.67;;;;;;;14.88;100.00;101825.06;5072520;28;20027;-67
2023/08/21 05:53:56;;;;;;;19.73;9.73;;;;;;;14.88;100.00;101800.09;5073618;28;20021;-66
2023/08/21 05:56:22;;;;;;;23.03;9.50;;;;;;;14.98;100.00;101806.13;5072442;28;20029;-65
2023/08/21 05:58:48;;;;;;;16.40;9.43;;;;;;;15.00;100.00;101793.38;5072249;28;20367;-64
2023/08/21 06:01:13;;;;;;;18.07;9.77;;;;;;;15.12;100.00;101802.78;5071023;28;20055;-65
2023/08/21 06:03:39;;;;;;;14.47;8.63;;;;;;;15.29;100.00;101808.16;5072402;28;20067;-69
2023/08/21 06:06:04;;;;;;;22.50;9.10;;;;;;;15.35;100.00;101802.13;5075576;28;20445;-68
2023/08/21 06:08:30;;;;;;;23.13;16.17;;;;;;;15.16;100.00;101761.19;5072120;28;20571;-65
2023/08/21 06:10:58;;;;;;;15.38;9.35;;;;;;;15.48;100.00;101797.06;5071997;28;20439;-66
2023/08/21 06:13:25;;;;;;;10.23;8.40;;;;;;;15.43;100.00;101786.00;5071998;28;20028;-66
2023/08/21 06:15:51;;;;;;;10.70;7.77;;;;;;;15.55;100.00;101794.53;5072223;28;20032;-66
2023/08/21 06:18:16;;;;;;;15.13;7.07;;;;;;;15.64;100.00;101786.34;5072721;28;20097;-65
2023/08/21 06:20:45;;;;;;;11.67;6.80;;;;;;;15.67;100.00;101786.00;5072929;28;20048;-65
2023/08/21 06:23:11;;;;;;;11.73;7.37;;;;;;;15.67;100.00;101775.28;5071135;28;20029;-66
2023/08/21 06:25:37;;;;;;;12.53;6.73;;;;;;;15.77;100.00;101775.06;5070740;28;20029;-65
2023/08/21 06:28:03;;;;;;;8.43;5.90;;;;;;;15.79;100.00;101781.94;5072028;28;20522;-72
2023/08/21 06:30:29;;;;;;;11.90;6.60;;;;;;;15.88;100.00;101781.91;5071605;28;20025;-67
2023/08/21 06:32:55;;;;;;;12.67;6.80;;;;;;;15.96;100.00;101784.59;5071865;28;20079;-66
2023/08/21 06:35:21;;;;;;;11.20;6.80;;;;;;;15.69;100.00;101735.66;5071855;28;20020;-68
2023/08/21 06:37:46;;;;;;;13.90;7.47;;;;;;;15.92;100.00;101770.69;5071832;28;20421;-66
2023/08/21 06:40:11;;;;;;;10.53;7.27;;;;;;;16.02;100.00;101783.91;5071643;28;20028;-66
2023/08/21 06:42:37;;;;;;;8.07;6.23;;;;;;;16.03;100.00;101775.66;5081420;28;20412;-66
2023/08/21 06:45:05;;;;;;;12.07;7.23;;;;;;;16.14;100.00;101777.13;5083823;28;20036;-64
2023/08/21 06:47:30;;;;;;;8.20;6.65;;;;;;;16.20;100.00;101775.63;5075752;28;20127;-65
2023/08/21 06:49:56;;;;;;;13.17;6.60;;;;;;;15.97;100.00;101722.63;5075767;28;20119;-65
2023/08/21 06:52:21;;;;;;;9.57;6.53;;;;;;;16.22;100.00;101752.91;5075657;28;20039;-65
2023/08/21 06:54:47;;;;;;;11.70;6.60;;;;;;;16.39;100.00;101773.31;5075677;28;20062;-65
2023/08/21 06:57:12;;;;;;;13.63;6.67;;;;;;;16.45;98.75;101771.75;5083719;28;20085;-65
2023/08/21 06:59:38;;;;;;;15.13;6.20;;;;;;;16.45;98.41;101750.25;5075575;28;20024;-66
2023/08/21 07:02:03;;;;;;;13.57;6.47;;;;;;;16.45;97.32;101736.81;5076807;28;20036;-67
2023/08/21 07:04:29;;;;;;;13.03;4.67;;;;;;;16.59;96.79;101754.06;5076437;28;20467;-67
2023/08/21 07:06:55;;;;;;;7.83;5.20;;;;;;;16.66;96.81;101746.97;5075594;28;20344;-66
2023/08/21 07:09:20;;;;;;;7.07;4.67;;;;;;;16.79;95.18;101759.84;5075661;28;20032;-67
2023/08/21 07:11:46;;;;;;;8.33;4.90;;;;;;;16.83;95.05;101756.63;5075377;28;20044;-68
2023/08/21 07:14:13;;;;;;;10.07;4.63;;;;;;;16.87;94.19;101757.09;5075293;28;20365;-68
2023/08/21 07:16:39;;;;;;;7.83;5.20;;;;;;;16.85;93.91;101749.19;5075352;28;20417;-66
2023/08/21 07:19:05;;;;;;;6.57;5.07;;;;;;;16.99;93.64;101761.84;5074237;28;20032;-65
2023/08/21 07:21:30;;;;;;;10.25;4.35;;;;;;;17.01;92.86;101749.03;5075275;28;20038;-66
2023/08/21 07:23:56;;;;;;;6.45;4.28;;;;;;;16.98;92.03;101738.66;5075189;28;20033;-67
2023/08/21 07:26:21;;;;;;;7.85;4.97;;;;;;;16.76;91.60;101685.69;5073868;28;20115;-69
2023/08/21 07:28:47;;;;;;;7.45;4.22;;;;;;;16.85;91.38;101700.75;5074880;28;20024;-66
2023/08/21 07:31:12;;;;;;;7.60;3.97;;;;;;;17.15;91.00;101755.50;5077534;28;20031;-68
2023/08/21 07:33:38;;;;;;;5.07;3.63;;;;;;;17.21;89.94;101745.88;5087443;28;20090;-69
2023/08/21 07:36:05;;;;;;;9.32;4.88;;;;;;;17.20;89.82;101738.81;5086774;28;20382;-71
2023/08/21 07:38:31;;;;;;;7.32;4.38;;;;;;;17.33;90.84;101741.69;5081649;28;20020;-65
2023/08/21 07:41:08;;;;;;;4.45;3.95;;;;;;;17.40;90.17;101744.53;5086075;28;20410;-66
2023/08/21 07:43:34;;;;;;;11.70;4.55;;;;;;;17.36;89.80;101727.91;5085623;28;20047;-67
2023/08/21 07:46:09;;;;;;;6.78;3.85;;;;;;;17.36;89.33;101722.50;5083765;28;20060;-65
2023/08/21 07:48:35;;;;;;;6.83;5.00;;;;;;;17.36;87.95;101709.06;5088963;28;20035;-67
2023/08/21 07:51:00;;;;;;;9.20;4.30;;;;;;;17.51;87.84;101720.66;5077610;28;20111;-66
2023/08/21 07:53:27;;;;;;;7.87;4.43;;;;;;;17.60;88.58;101727.63;5075976;28;20489;-68
2023/08/21 07:55:52;;;;;;;6.60;4.37;;;;;;;17.79;88.57;101728.97;5085564;28;20089;-68
2023/08/21 07:58:18;;;;;;;4.50;3.50;;;;;;;17.85;85.78;101720.13;5085732;28;20475;-66
2023/08/21 08:00:44;;;;;;;11.00;4.50;;;;;;;18.07;85.04;101733.69;5084054;28;20076;-65
2023/08/21 08:03:11;;;;;;;7.78;4.97;;;;;;;18.14;84.45;101718.41;5074508;28;20025;-65
2023/08/21 08:05:38;;;;;;;3.75;3.30;;;;;;;18.42;82.50;101724.75;5074853;28;20021;-67
2023/08/21 08:08:04;;;;;;;5.35;3.65;;;;;;;18.57;81.37;101730.13;5074400;28;20044;-65
2023/08/21 08:10:29;;;;;;;3.75;3.45;;;;;;;18.70;80.54;101714.09;5076219;28;20059;-66
2023/08/21 08:12:55;;;;;;;8.48;4.35;;;;;;;18.88;80.01;101714.47;5074986;28;20032;-68
2023/08/21 08:15:21;;;;;;;4.95;3.83;;;;;;;18.97;78.96;101709.75;5074962;28;20024;-66
2023/08/21 08:17:47;;;;;;;5.00;3.15;;;;;;;19.06;77.58;101721.25;5080033;28;20097;-66
2023/08/21 08:20:13;;;;;;;5.82;3.67;;;;;;;18.96;76.53;101680.25;5093545;28;20479;-67
2023/08/21 08:22:41;;;;;;;5.38;3.55;;;;;;;19.23;75.92;101713.72;5093947;28;20035;-68
2023/08/21 08:25:07;;;;;;;6.95;3.83;;;;;;;19.22;75.98;101718.28;5094931;28;20417;-68
2023/08/21 08:27:33;;;;;;;6.30;4.70;;;;;;;19.33;77.30;101709.63;5095445;28;20031;-70
2023/08/21 08:29:58;;;;;;;6.70;4.85;;;;;;;19.41;76.55;101695.97;5095180;28;20103;-68
2023/08/21 08:32:25;;;;;;;6.28;4.80;;;;;;;19.54;74.70;101695.25;5094916;28;20036;-70
2023/08/21 08:34:52;;;;;;;9.60;4.90;;;;;;;19.64;73.13;101711.09;5094755;28;20463;-65
2023/08/21 08:37:18;;;;;;;6.45;3.92;;;;;;;19.50;72.75;101689.38;5078428;28;20339;-66
2023/08/21 08:39:43;;;;;;;7.72;4.82;;;;;;;19.55;74.85;101701.50;5094852;28;20032;-66
2023/08/21 08:42:10;;;;;;;8.70;5.00;;;;;;;19.27;74.98;101664.50;5094538;28;20458;-66
2023/08/21 08:44:38;;;;;;;10.45;6.28;;;;;;;19.26;75.04;101670.94;5095185;28;20020;-64
2023/08/21 08:47:04;;;;;;;12.23;5.57;;;;;;;19.40;75.50;101688.09;5093595;28;20031;-67
2023/08/21 08:49:30;;;;;;;9.65;5.80;;;;;;;19.36;76.88;101676.81;5094110;28;20036;-66
2023/08/21 08:51:58;;;;;;;12.30;6.72;;;;;;;19.42;73.86;101676.03;5092591;28;20028;-67
2023/08/21 08:54:25;;;;;;;9.90;5.47;;;;;;;19.46;72.45;101676.47;5093051;28;20293;-72
2023/08/21 08:56:51;;;;;;;7.82;4.50;;;;;;;19.42;74.34;101670.63;5093893;28;20055;-68
2023/08/21 08:59:16;;;;;;;13.98;4.90;;;;;;;19.13;73.68;101616.84;5093807;28;20497;-67
2023/08/21 09:01:42;;;;;;;7.55;4.55;;;;;;;19.41;73.82;101665.44;5092472;28;20045;-67
2023/08/21 09:04:08;;;;;;;6.13;4.00;;;;;;;19.57;72.03;101664.28;5090217;28;20020;-66
2023/08/21 09:06:34;;;;;;;3.90;3.25;;;;;;;19.65;71.96;101658.72;5092772;28;20107;-66
2023/08/21 09:08:59;;;;;;;4.78;3.65;;;;;;;19.78;71.94;101664.19;5093357;28;20052;-64
2023/08/21 09:11:25;;;;;;;6.90;4.05;;;;;;;19.83;72.75;101658.19;5093887;28;20028;-66
2023/08/21 09:13:53;;;;;;;6.95;3.10;;;;;;;19.62;70.95;101642.91;5093514;28;20043;-68
2023/08/21 09:16:20;;;;;;;7.25;4.10;;;;;;;19.67;71.73;101659.38;5093905;28;20027;-66
2023/08/21 09:18:54;;;;;;;8.63;4.32;;;;;;;19.73;73.38;101653.16;5093429;28;20027;-68
2023/08/21 09:21:21;;;;;;;6.70;3.28;;;;;;;19.69;73.71;101623.00;5093669;28;20024;-68
2023/08/21 09:23:48;;;;;;;7.55;4.10;;;;;;;19.99;71.67;101649.72;5093659;28;20115;-65
2023/08/21 09:26:20;;;;;;;5.88;3.58;;;;;;;19.88;71.82;101626.81;5093198;28;20028;-68
2023/08/21 09:28:50;;;;;;;5.28;3.72;;;;;;;19.96;69.44;101648.28;5093082;28;20031;-67
2023/08/21 09:31:16;;;;;;;4.88;3.58;;;;;;;19.86;67.91;101639.69;5091679;28;20028;-66
2023/08/21 09:33:42;;;;;;;6.28;3.05;;;;;;;19.78;68.95;101620.94;5093025;28;20027;-66
2023/08/21 09:36:10;;;;;;;7.38;3.92;;;;;;;19.93;69.86;101639.69;5093009;28;20383;-67
2023/08/21 09:38:38;;;;;;;5.32;3.13;;;;;;;19.94;68.25;101636.78;5091793;28;20032;-68
2023/08/21 09:41:04;;;;;;;5.88;3.75;;;;;;;20.05;67.88;101633.53;5092815;28;20032;-67
2023/08/21 09:43:29;;;;;;;4.03;3.15;;;;;;;20.10;66.74;101620.22;5093001;28;20023;-66
2023/08/21 09:45:55;;;;;;;3.83;2.35;;;;;;;20.14;64.73;101626.03;5092742;28;20031;-67
2023/08/21 09:48:27;;;;;;;3.67;2.85;;;;;;;20.01;65.46;101626.03;5092527;28;20115;-67
2023/08/21 09:50:53;;;;;;;3.90;2.88;;;;;;;19.88;67.26;101615.97;5092957;28;20065;-66
2023/08/21 09:53:22;;;;;;;4.15;3.13;;;;;;;20.00;65.57;101624.34;5093259;28;20110;-65
2023/08/21 09:56:08;;;;;;;8.25;6.15;;;;;;;20.00;66.38;101618.94;5093532;28;20065;-67
2023/08/21 09:58:35;;;;;;;6.47;3.70;;;;;;;20.00;66.82;101603.56;5093023;28;20032;-67
2023/08/21 10:01:14;;;;;;;8.15;3.20;;;;;;;20.03;65.77;101608.56;5092173;28;20062;-66
2023/08/21 10:03:42;;;;;;;4.38;3.50;;;;;;;19.96;65.75;101596.06;5092402;28;20089;-66
2023/08/21 10:06:11;;;;;;;7.03;3.27;;;;;;;19.92;66.68;101590.22;5092557;28;20113;-69
2023/08/21 10:08:41;;;;;;;5.28;3.60;;;;;;;19.98;64.36;101594.81;5094168;28;20036;-69
2023/08/21 10:11:09;;;;;;;7.68;3.28;;;;;;;19.96;63.88;101591.50;5091477;28;20131;-66
2023/08/21 10:13:36;;;;;;;3.72;3.20;;;;;;;19.97;63.67;101582.34;5092808;28;20031;-67
2023/08/21 10:16:03;;;;;;;6.30;3.30;;;;;;;20.03;62.76;101589.63;5092643;28;20051;-64
2023/08/21 10:18:33;;;;;;;9.10;2.90;;;;;;;19.97;59.71;101576.94;5092197;28;20035;-66
2023/08/21 10:21:11;;;;;;;21.58;13.82;;;;;;;19.92;61.79;101573.16;5092373;28;20036;-65
2023/08/21 10:23:38;;;;;;;7.85;3.70;;;;;;;19.84;63.89;101590.41;5092578;28;20024;-63
2023/08/21 10:26:07;;;;;;;4.68;3.20;;;;;;;19.75;64.45;101578.13;5092515;28;20024;-66
2023/08/21 10:28:48;;;;;;;;;;;;;;;19.79;64.35;101590.19;5063870;28;20026;-67
2023/08/21 10:31:31;;;;;;;3.85;2.75;;;;;;;19.85;62.82;101586.66;5090961;28;20260;-63
2023/08/21 10:33:58;;;;;;;4.85;3.25;;;;;;;20.01;64.12;101580.91;5092177;28;20028;-63
2023/08/21 10:36:42;;;;;;;4.80;3.60;;;;;;;20.26;63.63;101583.84;5092441;28;20031;-66
2023/08/21 10:39:24;;;;;;;4.25;2.78;;;;;;;20.22;61.67;101558.22;5092239;28;20126;-62
2023/08/21 10:42:03;;;;;;;4.65;3.10;;;;;;;20.36;61.24;101584.25;5092042;28;20538;-65
2023/08/21 10:44:41;;;;;;;5.35;2.67;;;;;;;20.29;60.20;101550.13;5090909;28;20033;-65
2023/08/21 10:47:17;;;;;;;8.45;2.95;;;;;;;20.34;58.96;101555.75;5092575;28;20028;-65
2023/08/21 10:49:54;;;;;;;4.10;2.97;;;;;;;20.38;59.31;101551.59;5092451;28;20084;-65
2023/08/21 10:52:25;;;;;;;6.28;2.40;;;;;;;20.28;58.03;101529.53;5092693;28;20035;-64
2023/08/21 10:54:54;;;;;;;3.80;2.67;;;;;;;20.41;56.26;101548.50;5093114;28;20032;-64
2023/08/21 10:57:20;;;;;;;3.25;2.03;;;;;;;20.48;57.04;101546.63;5091207;28;20117;-65
2023/08/21 10:59:54;;;;;;;4.00;2.55;;;;;;;20.56;57.11;101541.00;5092140;28;20040;-65
2023/08/21 11:02:20;;;;;;;3.85;2.00;;;;;;;20.59;56.76;101535.19;5092878;28;20050;-68
2023/08/21 11:04:46;;;;;;;3.78;3.10;;;;;;;20.76;57.30;101548.25;5092066;28;20035;-65
2023/08/21 11:07:13;;;;;;;4.38;3.53;;;;;;;20.71;57.39;101519.13;5092206;28;20052;-65
2023/08/21 11:09:39;;;;;;;5.72;2.75;;;;;;;20.75;56.72;101524.94;5074655;28;20032;-66
2023/08/21 11:12:09;;;;;;;3.63;2.45;;;;;;;20.79;56.26;101528.88;5092011;28;20039;-63
2023/08/21 11:14:35;;;;;;;5.28;2.50;;;;;;;20.69;56.95;101511.22;5091929;28;20074;-66